KAL9659 RKSI-VTBS
Flight info
| Callsign | KAL9659 |
|---|---|
| Flight time | N/A |
| Altitude | 34000 |
| Route | BOPTA Z51 BEDES Y711 MUGUS Y742 SALMI Q11 TACLE B591 HCN G86 KAPLI DCT MADRU DCT SULUX DCT IGLEG DCT IKELA/K0945F340 A1 BUNTA/K0926F360 A1 PAPRA/N0500F360 A1 UBL Y20 GRASO Y13 RUKSA |
| Aircraft | B77W/H-SDE1E2E3FGHIJ2J3J4J5M1RWXY/LB1D1 |
Departure
| Time | 2026-05-01 11:00 |
|---|---|
| Airport | Incheon International Airport (RKSI) |
Arrival
| Time | N/A |
|---|---|
| Airport | Suvarnabhumi Airport (VTBS) |
| Time | Latitude | Longitude | Altitude | Speed | Heading |
|---|---|---|---|---|---|
| 2026-05-01 10:23 | 37.46661 | 126.43970 | 37 ft | 0 kts | 73° |
| 2026-05-01 10:28 | 37.46661 | 126.43969 | 37 ft | 0 kts | 73° |
| 2026-05-01 10:33 | 37.46644 | 126.43901 | 37 ft | 9 kts | 72° |
| 2026-05-01 10:34 | 37.46632 | 126.43849 | 34 ft | 3 kts | 86° |
| 2026-05-01 10:34 | 37.46633 | 126.43832 | 33 ft | 2 kts | 117° |
| 2026-05-01 10:34 | 37.46637 | 126.43823 | 33 ft | 4 kts | 126° |
| 2026-05-01 10:35 | 37.46610 | 126.43856 | 37 ft | 1 kts | 144° |
| 2026-05-01 10:35 | 37.46601 | 126.43864 | 37 ft | 1 kts | 146° |
| 2026-05-01 10:35 | 37.46598 | 126.43867 | 37 ft | 0 kts | 146° |
| 2026-05-01 10:38 | 37.46598 | 126.43866 | 37 ft | 0 kts | 146° |
| 2026-05-01 10:38 | 37.46597 | 126.43867 | 37 ft | 1 kts | 146° |
| 2026-05-01 10:39 | 37.46569 | 126.43891 | 37 ft | 6 kts | 145° |
| 2026-05-01 10:39 | 37.46535 | 126.43921 | 37 ft | 6 kts | 144° |
| 2026-05-01 10:39 | 37.46502 | 126.43951 | 37 ft | 6 kts | 144° |
| 2026-05-01 10:39 | 37.46468 | 126.43981 | 37 ft | 6 kts | 144° |
| 2026-05-01 10:40 | 37.46434 | 126.44010 | 37 ft | 6 kts | 147° |
| 2026-05-01 10:40 | 37.46394 | 126.44006 | 37 ft | 6 kts | 206° |
| 2026-05-01 10:40 | 37.46363 | 126.43967 | 37 ft | 6 kts | 232° |
| 2026-05-01 10:40 | 37.46336 | 126.43923 | 37 ft | 6 kts | 233° |
| 2026-05-01 10:41 | 37.46309 | 126.43878 | 37 ft | 6 kts | 233° |
| 2026-05-01 10:41 | 37.46262 | 126.43794 | 37 ft | 19 kts | 235° |
| 2026-05-01 10:41 | 37.46130 | 126.43560 | 37 ft | 20 kts | 234° |
| 2026-05-01 10:42 | 37.46024 | 126.43374 | 37 ft | 20 kts | 234° |
| 2026-05-01 10:42 | 37.45952 | 126.43247 | 37 ft | 12 kts | 234° |
| 2026-05-01 10:42 | 37.45946 | 126.43238 | 37 ft | 0 kts | 234° |
| 2026-05-01 10:42 | 37.45933 | 126.43217 | 37 ft | 3 kts | 225° |
| 2026-05-01 10:43 | 37.45914 | 126.43208 | 37 ft | 6 kts | 191° |
| 2026-05-01 10:43 | 37.45850 | 126.43245 | 37 ft | 16 kts | 145° |
| 2026-05-01 10:43 | 37.45731 | 126.43352 | 37 ft | 22 kts | 144° |
| 2026-05-01 10:43 | 37.45584 | 126.43484 | 37 ft | 31 kts | 144° |
| 2026-05-01 10:44 | 37.45414 | 126.43634 | 37 ft | 30 kts | 145° |
| 2026-05-01 10:44 | 37.45242 | 126.43787 | 37 ft | 30 kts | 144° |
| 2026-05-01 10:44 | 37.45072 | 126.43939 | 37 ft | 30 kts | 144° |
| 2026-05-01 10:44 | 37.44901 | 126.44090 | 37 ft | 30 kts | 145° |
| 2026-05-01 10:45 | 37.44733 | 126.44239 | 37 ft | 28 kts | 144° |
| 2026-05-01 10:45 | 37.44600 | 126.44357 | 37 ft | 14 kts | 144° |
| 2026-05-01 10:45 | 37.44573 | 126.44381 | 37 ft | 0 kts | 144° |
| 2026-05-01 10:47 | 37.44573 | 126.44380 | 37 ft | 0 kts | 145° |
| 2026-05-01 10:47 | 37.44573 | 126.44381 | 37 ft | 1 kts | 144° |
| 2026-05-01 10:47 | 37.44562 | 126.44391 | 37 ft | 2 kts | 144° |
| 2026-05-01 10:47 | 37.44555 | 126.44396 | 37 ft | 0 kts | 144° |
| 2026-05-01 10:49 | 37.44538 | 126.44412 | 37 ft | 4 kts | 146° |
| 2026-05-01 10:50 | 37.44507 | 126.44419 | 37 ft | 5 kts | 187° |
| 2026-05-01 10:50 | 37.44478 | 126.44396 | 37 ft | 5 kts | 228° |
| 2026-05-01 10:50 | 37.44468 | 126.44382 | 37 ft | 1 kts | 231° |
| 2026-05-01 10:50 | 37.44465 | 126.44376 | 37 ft | 0 kts | 233° |
| 2026-05-01 10:52 | 37.44461 | 126.44369 | 35 ft | 2 kts | 233° |
| 2026-05-01 10:52 | 37.44460 | 126.44367 | 35 ft | 0 kts | 233° |
| 2026-05-01 10:55 | 37.44433 | 126.44320 | 37 ft | 8 kts | 235° |
| 2026-05-01 10:55 | 37.44422 | 126.44300 | 37 ft | 0 kts | 235° |
| 2026-05-01 10:58 | 37.44397 | 126.44256 | 36 ft | 11 kts | 235° |
| 2026-05-01 10:58 | 37.44364 | 126.44195 | 36 ft | 6 kts | 242° |
| 2026-05-01 10:58 | 37.44372 | 126.44147 | 35 ft | 6 kts | 301° |
| 2026-05-01 10:59 | 37.44403 | 126.44110 | 35 ft | 6 kts | 322° |
| 2026-05-01 10:59 | 37.44413 | 126.44102 | 35 ft | 1 kts | 324° |
| 2026-05-01 10:59 | 37.44516 | 126.44009 | 37 ft | 48 kts | 324° |
| 2026-05-01 10:59 | 37.44980 | 126.43597 | 36 ft | 114 kts | 324° |
| 2026-05-01 11:00 | 37.45785 | 126.42881 | 38 ft | 167 kts | 324° |
| 2026-05-01 11:00 | 37.46835 | 126.41995 | 261 ft | 186 kts | 322° |
| 2026-05-01 11:00 | 37.47802 | 126.40928 | 665 ft | 191 kts | 300° |
| 2026-05-01 11:00 | 37.48431 | 126.39502 | 1285 ft | 183 kts | 303° |
| 2026-05-01 11:01 | 37.49233 | 126.38256 | 1829 ft | 188 kts | 309° |
| 2026-05-01 11:01 | 37.50123 | 126.36940 | 1960 ft | 206 kts | 300° |
| 2026-05-01 11:01 | 37.50442 | 126.35134 | 2127 ft | 222 kts | 271° |
| 2026-05-01 11:01 | 37.50456 | 126.33124 | 2484 ft | 236 kts | 273° |
| 2026-05-01 11:02 | 37.50511 | 126.31014 | 3046 ft | 243 kts | 273° |
| 2026-05-01 11:02 | 37.50568 | 126.28868 | 3685 ft | 249 kts | 272° |
| 2026-05-01 11:02 | 37.50622 | 126.26647 | 4231 ft | 258 kts | 272° |
| 2026-05-01 11:02 | 37.50678 | 126.24343 | 4870 ft | 268 kts | 271° |
| 2026-05-01 11:03 | 37.50734 | 126.21991 | 5576 ft | 275 kts | 270° |
| 2026-05-01 11:03 | 37.50462 | 126.19613 | 6187 ft | 279 kts | 243° |
| 2026-05-01 11:03 | 37.49285 | 126.17739 | 6992 ft | 273 kts | 213° |
| 2026-05-01 11:03 | 37.47609 | 126.16685 | 7740 ft | 271 kts | 198° |
| 2026-05-01 11:04 | 37.45818 | 126.15857 | 8455 ft | 275 kts | 198° |
| 2026-05-01 11:04 | 37.44030 | 126.15031 | 9398 ft | 272 kts | 198° |
| 2026-05-01 11:04 | 37.42197 | 126.14452 | 10009 ft | 274 kts | 178° |
| 2026-05-01 11:04 | 37.40318 | 126.14972 | 10415 ft | 288 kts | 153° |
| 2026-05-01 11:05 | 37.38694 | 126.16576 | 10589 ft | 308 kts | 133° |
| 2026-05-01 11:05 | 37.37239 | 126.18702 | 10766 ft | 333 kts | 131° |
| 2026-05-01 11:05 | 37.36218 | 126.20202 | 10910 ft | 349 kts | 131° |
| 2026-05-01 11:06 | 37.36155 | 126.20295 | 10915 ft | 349 kts | 131° |
| 2026-05-01 11:06 | 37.35159 | 126.21744 | 11223 ft | 358 kts | 131° |
| 2026-05-01 11:06 | 37.33501 | 126.24138 | 11841 ft | 368 kts | 132° |
| 2026-05-01 11:07 | 37.30075 | 126.29049 | 13058 ft | 378 kts | 132° |
| 2026-05-01 11:07 | 37.28330 | 126.31542 | 13022 ft | 379 kts | 132° |
| 2026-05-01 11:07 | 37.26590 | 126.34026 | 13022 ft | 378 kts | 132° |
| 2026-05-01 11:07 | 37.24880 | 126.36467 | 13025 ft | 377 kts | 132° |
| 2026-05-01 11:08 | 37.23124 | 126.38972 | 13028 ft | 377 kts | 132° |
| 2026-05-01 11:08 | 37.21412 | 126.41409 | 13024 ft | 378 kts | 132° |
| 2026-05-01 11:08 | 37.17352 | 126.45340 | 13158 ft | 372 kts | 161° |
| 2026-05-01 11:09 | 37.14868 | 126.46428 | 13741 ft | 382 kts | 161° |
| 2026-05-01 11:09 | 37.12368 | 126.47584 | 14540 ft | 383 kts | 160° |
| 2026-05-01 11:09 | 37.09870 | 126.48767 | 15442 ft | 383 kts | 160° |